createdAt,value
2023-03-12T00:00:28.490Z,4.32
2023-03-12T00:03:01.245Z,3.42
2023-03-12T00:05:31.273Z,3.72
2023-03-12T00:08:01.470Z,4.07
2023-03-12T00:10:32.317Z,3.40
2023-03-12T00:13:02.971Z,3.33
2023-03-12T00:15:33.090Z,4.53
2023-03-12T00:18:04.989Z,2.97
2023-03-12T00:20:35.606Z,2.95
2023-03-12T00:23:06.130Z,3.25
2023-03-12T00:25:36.087Z,2.83
2023-03-12T00:28:06.469Z,3.70
2023-03-12T00:30:36.628Z,4.38
2023-03-12T00:33:08.564Z,3.80
2023-03-12T00:35:40.567Z,3.97
2023-03-12T00:38:10.872Z,3.03
2023-03-12T00:40:41.171Z,3.60
2023-03-12T00:43:11.550Z,4.90
2023-03-12T00:45:41.308Z,4.00
2023-03-12T00:48:12.515Z,3.53
2023-03-12T00:50:42.718Z,2.95
2023-03-12T00:53:12.800Z,3.67
2023-03-12T00:55:43.226Z,3.63
2023-03-12T00:58:13.106Z,2.80
2023-03-12T01:00:43.492Z,3.58
2023-03-12T01:03:19.560Z,4.22
2023-03-12T01:05:54.302Z,2.97
2023-03-12T01:08:26.054Z,3.83
2023-03-12T01:10:56.135Z,3.17
2023-03-12T01:13:26.668Z,3.28
2023-03-12T01:15:56.995Z,2.60
2023-03-12T01:18:29.257Z,2.80
2023-03-12T01:20:59.768Z,2.53
2023-03-12T01:23:30.078Z,2.25
2023-03-12T01:25:59.940Z,2.55
2023-03-12T01:28:30.347Z,2.38
2023-03-12T01:31:00.242Z,2.65
2023-03-12T01:33:32.554Z,2.42
2023-03-12T01:36:02.230Z,2.20
2023-03-12T01:38:32.612Z,2.67
2023-03-12T01:41:02.794Z,4.20
2023-03-12T01:43:35.709Z,1.70
2023-03-12T01:46:26.088Z,2.65
2023-03-12T01:49:04.298Z,1.63
2023-03-12T01:51:42.572Z,2.50
2023-03-12T01:54:19.511Z,2.10
2023-03-12T01:56:51.446Z,2.55
2023-03-12T01:59:27.795Z,1.60
2023-03-12T02:02:00.143Z,2.17
2023-03-12T02:04:34.619Z,1.83
2023-03-12T02:07:10.143Z,1.83
2023-03-12T02:09:45.039Z,1.83
2023-03-12T02:12:15.463Z,1.98
2023-03-12T02:14:46.207Z,2.10
2023-03-12T02:17:16.849Z,1.98
2023-03-12T02:19:58.100Z,2.28
2023-03-12T02:22:29.035Z,1.50
2023-03-12T02:25:06.978Z,1.50
2023-03-12T02:27:42.554Z,1.65
2023-03-12T02:30:16.936Z,1.63
2023-03-12T02:32:49.138Z,2.55
2023-03-12T02:35:19.845Z,1.75
2023-03-12T02:37:55.143Z,2.00
2023-03-12T02:40:31.345Z,1.67
2023-03-12T02:43:05.556Z,1.55
2023-03-12T02:45:38.916Z,2.17
2023-03-12T02:48:11.711Z,1.85
2023-03-12T02:50:42.216Z,1.77
2023-03-12T02:53:12.478Z,1.35
2023-03-12T02:55:42.367Z,1.55
2023-03-12T02:58:14.661Z,2.13
2023-03-12T03:00:45.123Z,1.50
2023-03-12T03:03:15.009Z,1.48
2023-03-12T03:05:44.844Z,1.42
2023-03-12T03:08:14.845Z,1.58
2023-03-12T03:10:44.875Z,3.45
2023-03-12T03:13:17.316Z,1.50
2023-03-12T03:15:47.536Z,1.33
2023-03-12T03:18:17.841Z,1.70
2023-03-12T03:20:48.115Z,1.55
2023-03-12T03:23:17.966Z,2.42
2023-03-12T03:25:49.429Z,2.42
2023-03-12T03:28:22.281Z,2.30
2023-03-12T03:30:55.085Z,2.38
2023-03-12T03:33:25.386Z,2.13
2023-03-12T03:35:59.838Z,1.80
2023-03-12T03:38:31.658Z,1.58
2023-03-12T03:41:01.592Z,1.50
2023-03-12T03:43:33.493Z,1.90
2023-03-12T03:46:06.672Z,2.38
2023-03-12T03:48:37.032Z,1.45
2023-03-12T03:51:12.770Z,1.35
2023-03-12T03:53:42.874Z,1.90
2023-03-12T03:56:16.084Z,1.38
2023-03-12T03:58:48.734Z,1.48
2023-03-12T04:01:19.375Z,1.40
2023-03-12T04:03:49.668Z,3.80
2023-03-12T04:06:19.991Z,1.73
2023-03-12T04:08:49.943Z,3.33
2023-03-12T04:11:22.986Z,1.77
2023-03-12T04:13:55.383Z,2.53
2023-03-12T04:16:25.907Z,2.15
2023-03-12T04:18:56.423Z,1.08
2023-03-12T04:21:26.370Z,1.20
2023-03-12T04:23:56.488Z,1.20
2023-03-12T04:26:26.876Z,2.05
2023-03-12T04:28:59.085Z,1.80
2023-03-12T04:31:28.873Z,1.55
2023-03-12T04:33:58.660Z,1.40
2023-03-12T04:36:29.479Z,2.28
2023-03-12T04:38:59.899Z,1.38
2023-03-12T04:41:30.432Z,2.10
2023-03-12T04:44:02.767Z,1.83
2023-03-12T04:46:33.793Z,1.58
2023-03-12T04:49:04.182Z,1.90
2023-03-12T04:51:35.092Z,1.45
2023-03-12T04:54:05.468Z,1.77
2023-03-12T04:56:35.799Z,1.38
2023-03-12T04:59:08.391Z,2.25
2023-03-12T05:01:40.631Z,1.42
2023-03-12T05:04:11.196Z,1.40
2023-03-12T05:06:41.527Z,2.10
2023-03-12T05:09:11.934Z,1.77
2023-03-12T05:11:41.719Z,1.55
2023-03-12T05:14:15.142Z,1.35
2023-03-12T05:16:45.562Z,1.80
2023-03-12T05:19:16.124Z,1.63
2023-03-12T05:21:47.245Z,1.50
2023-03-12T05:24:19.335Z,1.65
2023-03-12T05:26:49.630Z,1.25
2023-03-12T05:29:21.310Z,2.13
2023-03-12T05:31:51.114Z,1.50
2023-03-12T05:34:21.038Z,1.33
2023-03-12T05:36:50.778Z,2.13
2023-03-12T05:39:21.076Z,1.48
2023-03-12T05:41:51.391Z,1.25
2023-03-12T05:44:23.524Z,1.45
2023-03-12T05:46:53.662Z,1.58
2023-03-12T05:49:25.146Z,1.40
2023-03-12T05:51:55.599Z,1.58
2023-03-12T05:54:25.409Z,1.40
2023-03-12T05:56:56.508Z,1.60
2023-03-12T05:59:28.980Z,1.17
2023-03-12T06:01:59.715Z,1.33
2023-03-12T06:04:30.074Z,1.52
2023-03-12T06:07:00.158Z,2.63
2023-03-12T06:09:29.804Z,2.25
2023-03-12T06:12:00.143Z,1.23
2023-03-12T06:14:31.790Z,3.13
2023-03-12T06:17:01.886Z,2.63
2023-03-12T06:19:31.670Z,1.95
2023-03-12T06:22:02.049Z,2.65
2023-03-12T06:24:32.372Z,2.47
2023-03-12T06:27:02.197Z,1.65
2023-03-12T06:29:33.795Z,1.30
2023-03-12T06:32:03.661Z,3.13
2023-03-12T06:34:34.016Z,1.52
2023-03-12T06:37:04.612Z,2.22
2023-03-12T06:39:35.136Z,2.05
2023-03-12T06:42:05.497Z,1.35
2023-03-12T06:44:38.148Z,1.90
2023-03-12T06:47:08.491Z,2.60
2023-03-12T06:49:39.203Z,1.60
2023-03-12T06:52:09.064Z,2.45
2023-03-12T06:54:39.352Z,1.30
2023-03-12T06:57:10.206Z,2.15
2023-03-12T06:59:42.795Z,1.65
2023-03-12T07:02:13.102Z,1.30
2023-03-12T07:04:42.956Z,2.88
2023-03-12T07:07:13.471Z,1.50
2023-03-12T07:09:43.172Z,1.88
2023-03-12T07:12:13.465Z,2.42
2023-03-12T07:14:45.675Z,2.42
2023-03-12T07:17:15.933Z,1.40
2023-03-12T07:19:48.128Z,1.60
2023-03-12T07:22:19.761Z,2.22
2023-03-12T07:24:49.772Z,1.15
2023-03-12T07:27:19.749Z,1.20
2023-03-12T07:29:51.206Z,2.00
2023-03-12T07:32:21.472Z,1.13
2023-03-12T07:34:51.894Z,0.70
2023-03-12T07:37:22.334Z,1.10
2023-03-12T07:39:55.039Z,0.77
2023-03-12T07:42:25.353Z,0.93
2023-03-12T07:44:57.294Z,2.30
2023-03-12T07:47:27.806Z,1.10
2023-03-12T07:49:58.256Z,2.38
2023-03-12T07:52:28.957Z,1.83
2023-03-12T07:54:59.052Z,3.05
2023-03-12T07:57:29.520Z,1.17
2023-03-12T08:00:01.536Z,2.03
2023-03-12T08:02:31.819Z,1.40
2023-03-12T08:05:02.295Z,1.65
2023-03-12T08:07:35.582Z,2.58
2023-03-12T08:10:09.868Z,2.10
2023-03-12T08:12:40.839Z,2.50
2023-03-12T08:15:15.128Z,1.80
2023-03-12T08:17:45.332Z,2.60
2023-03-12T08:20:16.490Z,1.92
2023-03-12T08:22:46.468Z,1.80
2023-03-12T08:25:16.412Z,1.25
2023-03-12T08:27:46.825Z,1.02
2023-03-12T08:30:19.934Z,1.60
2023-03-12T08:32:50.480Z,1.75
2023-03-12T08:35:20.926Z,1.42
2023-03-12T08:37:51.268Z,2.50
2023-03-12T08:40:21.749Z,1.48
2023-03-12T08:42:52.201Z,2.33
2023-03-12T08:45:24.705Z,1.48
2023-03-12T08:47:54.725Z,1.42
2023-03-12T08:50:26.718Z,1.80
2023-03-12T08:52:57.522Z,2.22
2023-03-12T08:55:28.429Z,1.27
2023-03-12T08:57:59.000Z,1.17
2023-03-12T09:00:32.089Z,1.30
2023-03-12T09:03:01.935Z,1.40
2023-03-12T09:05:32.384Z,2.10
2023-03-12T09:08:02.915Z,2.30
2023-03-12T09:10:34.027Z,1.90
2023-03-12T09:13:04.359Z,1.13
2023-03-12T09:15:36.412Z,1.13
2023-03-12T09:18:07.056Z,1.45
2023-03-12T09:20:36.857Z,1.30
2023-03-12T09:23:07.834Z,1.25
2023-03-12T09:25:37.794Z,1.40
2023-03-12T09:28:08.906Z,1.00
2023-03-12T09:30:41.288Z,1.30
2023-03-12T09:33:12.176Z,1.85
2023-03-12T09:35:42.445Z,1.55
2023-03-12T09:38:17.171Z,2.28
2023-03-12T09:40:49.956Z,1.33
2023-03-12T09:43:30.630Z,1.40
2023-03-12T09:46:04.573Z,1.13
2023-03-12T09:48:38.199Z,1.50
2023-03-12T09:51:18.744Z,1.00
2023-03-12T09:53:54.170Z,0.77
2023-03-12T09:56:25.774Z,1.15
2023-03-12T09:58:56.547Z,1.50
2023-03-12T10:01:46.830Z,0.80
2023-03-12T10:04:48.690Z,1.42
2023-03-12T10:07:36.545Z,1.15
2023-03-12T10:10:46.220Z,0.98
2023-03-12T10:13:50.268Z,0.70
2023-03-12T10:16:50.523Z,0.57
2023-03-12T10:19:51.976Z,0.75
2023-03-12T10:22:48.692Z,0.98
2023-03-12T10:25:30.146Z,0.70
2023-03-12T10:28:13.840Z,1.50
2023-03-12T10:30:52.739Z,0.95
2023-03-12T10:33:26.108Z,0.77
2023-03-12T10:35:58.709Z,1.15
2023-03-12T10:38:33.029Z,0.80
2023-03-12T10:41:03.603Z,0.73
2023-03-12T10:43:35.554Z,0.60
2023-03-12T10:46:34.641Z,0.70
2023-03-12T10:49:36.506Z,0.57
2023-03-12T10:52:17.988Z,0.75
2023-03-12T10:54:50.535Z,0.98
2023-03-12T10:57:22.037Z,0.70
2023-03-12T10:59:52.224Z,1.10
2023-03-12T11:02:40.084Z,0.82
2023-03-12T11:05:25.651Z,0.60
2023-03-12T11:07:58.164Z,0.75
2023-03-12T11:10:40.073Z,0.52
2023-03-12T11:13:26.558Z,0.80
2023-03-12T11:15:58.225Z,0.60
2023-03-12T11:18:33.028Z,0.70
2023-03-12T11:21:21.959Z,1.13
2023-03-12T11:24:12.875Z,0.60
2023-03-12T11:26:53.463Z,0.68
2023-03-12T11:29:31.842Z,0.57
2023-03-12T11:32:17.142Z,1.40
2023-03-12T11:34:49.908Z,1.27
2023-03-12T11:37:33.238Z,0.60
2023-03-12T11:40:22.820Z,0.80
2023-03-12T11:43:41.984Z,0.60
2023-03-12T11:46:37.239Z,0.88
2023-03-12T11:49:27.279Z,0.30
2023-03-12T11:52:07.833Z,0.90
2023-03-12T11:55:16.898Z,1.60
2023-03-12T11:58:08.175Z,0.43
2023-03-12T12:00:50.267Z,0.70
2023-03-12T12:04:18.862Z,0.77
2023-03-12T12:07:08.778Z,1.08
2023-03-12T12:09:50.598Z,0.65
2023-03-12T12:12:41.887Z,0.68
2023-03-12T12:15:28.499Z,1.13
2023-03-12T12:18:17.197Z,0.98
2023-03-12T12:20:53.347Z,1.10
2023-03-12T12:23:42.897Z,1.10
2023-03-12T12:26:16.388Z,0.88
2023-03-12T12:29:27.835Z,1.27
2023-03-12T12:32:02.045Z,0.55
2023-03-12T12:35:02.455Z,0.63
2023-03-12T12:37:51.279Z,1.23
2023-03-12T12:40:27.100Z,1.55
2023-03-12T12:43:17.728Z,0.52
2023-03-12T12:45:53.030Z,0.65
2023-03-12T12:48:31.410Z,0.85
2023-03-12T12:51:04.166Z,0.80
2023-03-12T12:53:46.232Z,1.00
2023-03-12T12:56:28.125Z,0.77
2023-03-12T12:59:32.365Z,2.03
2023-03-12T13:02:05.585Z,0.68
2023-03-12T13:04:41.330Z,0.55
2023-03-12T13:07:36.118Z,1.63
2023-03-12T13:10:31.058Z,0.45
2023-03-12T13:13:02.492Z,0.80
2023-03-12T13:15:44.128Z,1.02
2023-03-12T13:18:29.643Z,0.80
2023-03-12T13:21:28.588Z,1.20
2023-03-12T13:24:13.917Z,0.65
2023-03-12T13:26:58.104Z,1.15
2023-03-12T13:29:42.298Z,0.75
2023-03-12T13:32:52.553Z,0.70
2023-03-12T13:35:42.211Z,2.45
2023-03-12T13:38:39.903Z,1.10
2023-03-12T13:41:11.158Z,0.80
2023-03-12T13:43:54.994Z,1.95
2023-03-12T13:46:43.386Z,1.13
2023-03-12T13:49:23.506Z,1.85
2023-03-12T13:52:11.034Z,1.13
2023-03-12T13:54:51.064Z,1.85
2023-03-12T13:57:41.568Z,0.70
2023-03-12T14:00:23.616Z,3.03
2023-03-12T14:03:00.777Z,0.80
2023-03-12T14:05:45.632Z,0.55
2023-03-12T14:08:36.292Z,0.75
2023-03-12T14:11:25.904Z,0.45
2023-03-12T14:14:50.819Z,0.82
2023-03-12T14:17:25.800Z,0.77
2023-03-12T14:20:03.085Z,0.73
2023-03-12T14:22:37.326Z,1.35
2023-03-12T14:25:16.950Z,0.60
2023-03-12T14:27:51.249Z,0.68
2023-03-12T14:30:31.145Z,1.33
2023-03-12T14:33:05.446Z,0.55
2023-03-12T14:35:44.675Z,0.93
2023-03-12T14:38:22.699Z,0.57
2023-03-12T14:41:03.177Z,0.43
2023-03-12T14:43:38.115Z,1.45
2023-03-12T14:46:17.722Z,0.98
2023-03-12T14:48:51.854Z,1.55
2023-03-12T14:51:28.615Z,0.88
2023-03-12T14:54:04.973Z,0.47
2023-03-12T14:56:37.415Z,0.50
2023-03-12T14:59:26.936Z,1.48
2023-03-12T15:02:03.930Z,1.00
2023-03-12T15:04:37.026Z,0.65
2023-03-12T15:07:11.593Z,0.50
2023-03-12T15:09:46.721Z,0.80
2023-03-12T15:12:24.107Z,1.05
2023-03-12T15:15:04.781Z,0.63
2023-03-12T15:17:36.892Z,1.70
2023-03-12T15:20:10.344Z,0.85
2023-03-12T15:22:42.990Z,1.08
2023-03-12T15:25:25.788Z,0.80
2023-03-12T15:28:10.543Z,0.77
2023-03-12T15:30:44.500Z,0.90
2023-03-12T15:33:24.980Z,0.85
2023-03-12T15:36:05.661Z,0.85
2023-03-12T15:38:38.626Z,1.83
2023-03-12T15:41:12.170Z,1.02
2023-03-12T15:43:47.389Z,0.60
2023-03-12T15:46:21.718Z,0.75
2023-03-12T15:48:55.163Z,1.42
2023-03-12T15:51:35.532Z,0.88
2023-03-12T15:54:08.887Z,1.95
2023-03-12T15:56:39.205Z,1.08
2023-03-12T15:59:26.888Z,1.40
2023-03-12T16:01:59.889Z,0.70
2023-03-12T16:04:29.529Z,1.30
2023-03-12T16:07:00.971Z,0.73
2023-03-12T16:09:36.063Z,1.00
2023-03-12T16:12:06.677Z,1.70
2023-03-12T16:14:37.414Z,1.10
2023-03-12T16:17:17.450Z,2.25
2023-03-12T16:19:47.649Z,1.05
2023-03-12T16:22:18.233Z,1.13
2023-03-12T16:24:47.880Z,1.00
2023-03-12T16:27:31.640Z,1.05
2023-03-12T16:30:02.665Z,0.82
2023-03-12T16:32:34.430Z,1.60
2023-03-12T16:35:07.855Z,1.10
2023-03-12T16:37:37.762Z,1.42
2023-03-12T16:40:09.893Z,0.85
2023-03-12T16:42:42.140Z,1.05
2023-03-12T16:45:16.339Z,1.25
2023-03-12T16:47:50.819Z,1.10
2023-03-12T16:50:24.295Z,1.45
2023-03-12T16:52:54.732Z,1.25
2023-03-12T16:55:28.445Z,1.73
2023-03-12T16:58:02.704Z,1.70
2023-03-12T17:00:37.345Z,1.80
2023-03-12T17:03:10.360Z,1.33
2023-03-12T17:05:40.467Z,1.05
2023-03-12T17:08:10.241Z,1.17
2023-03-12T17:10:40.138Z,1.23
2023-03-12T17:13:15.587Z,1.00
2023-03-12T17:15:45.986Z,1.30
2023-03-12T17:18:20.888Z,1.95
2023-03-12T17:20:53.000Z,1.48
2023-03-12T17:23:23.873Z,2.45
2023-03-12T17:25:53.490Z,1.33
2023-03-12T17:28:23.581Z,2.50
2023-03-12T17:30:54.098Z,1.77
2023-03-12T17:33:26.679Z,1.40
2023-03-12T17:36:01.766Z,1.45
2023-03-12T17:38:33.130Z,1.40
2023-03-12T17:41:11.420Z,1.67
2023-03-12T17:43:46.917Z,1.80
2023-03-12T17:46:16.812Z,1.73
2023-03-12T17:48:49.296Z,2.30
2023-03-12T17:51:24.462Z,2.88
2023-03-12T17:53:54.341Z,2.65
2023-03-12T17:56:24.025Z,2.13
2023-03-12T17:58:54.379Z,1.90
2023-03-12T18:01:25.805Z,2.78
2023-03-12T18:03:57.704Z,1.80
2023-03-12T18:06:28.341Z,1.75
2023-03-12T18:08:59.188Z,2.10
2023-03-12T18:11:29.528Z,1.35
2023-03-12T18:14:00.129Z,2.53
2023-03-12T18:16:32.378Z,1.33
2023-03-12T18:19:05.676Z,1.67
2023-03-12T18:21:35.655Z,1.80
2023-03-12T18:24:14.035Z,2.33
2023-03-12T18:26:45.700Z,2.00
2023-03-12T18:29:16.087Z,1.60
2023-03-12T18:31:46.485Z,1.55
2023-03-12T18:34:18.557Z,1.73
2023-03-12T18:36:49.009Z,1.70
2023-03-12T18:39:19.217Z,2.38
2023-03-12T18:41:49.486Z,1.98
2023-03-12T18:44:19.854Z,1.73
2023-03-12T18:46:51.128Z,2.88
2023-03-12T18:49:23.371Z,3.08
2023-03-12T18:51:56.343Z,2.58
2023-03-12T18:54:26.718Z,2.10
2023-03-12T18:56:56.943Z,3.85
2023-03-12T18:59:27.240Z,2.38
2023-03-12T19:01:57.833Z,3.28
2023-03-12T19:04:44.886Z,2.50
2023-03-12T19:07:15.332Z,2.47
2023-03-12T19:09:45.130Z,2.92
2023-03-12T19:12:16.006Z,3.40
2023-03-12T19:14:46.372Z,2.90
2023-03-12T19:17:17.030Z,2.65
2023-03-12T19:19:50.202Z,2.70
2023-03-12T19:22:22.513Z,2.22
2023-03-12T19:24:52.442Z,2.30
2023-03-12T19:27:23.054Z,2.35
2023-03-12T19:29:53.086Z,2.17
2023-03-12T19:32:25.363Z,1.88
2023-03-12T19:34:59.657Z,3.80
2023-03-12T19:37:29.696Z,2.22
2023-03-12T19:40:00.003Z,2.30
2023-03-12T19:42:30.430Z,2.50
2023-03-12T19:45:00.465Z,2.10
2023-03-12T19:47:33.557Z,2.83
2023-03-12T19:50:06.227Z,3.05
2023-03-12T19:52:36.067Z,3.03
2023-03-12T19:55:06.642Z,2.40
2023-03-12T19:57:36.842Z,2.60
2023-03-12T20:00:10.292Z,3.53
2023-03-12T20:02:44.074Z,2.33
2023-03-12T20:05:16.422Z,1.80
2023-03-12T20:07:47.203Z,2.20
2023-03-12T20:10:18.042Z,2.42
2023-03-12T20:12:48.299Z,1.70
2023-03-12T20:15:18.733Z,2.45
2023-03-12T20:17:48.562Z,1.88
2023-03-12T20:20:20.171Z,1.80
2023-03-12T20:22:50.221Z,1.92
2023-03-12T20:25:20.645Z,1.67
2023-03-12T20:27:50.986Z,1.70
2023-03-12T20:30:21.104Z,2.35
2023-03-12T20:32:51.370Z,1.75
2023-03-12T20:35:23.750Z,1.52
2023-03-12T20:37:53.722Z,1.58
2023-03-12T20:40:23.443Z,2.33
2023-03-12T20:42:53.636Z,1.38
2023-03-12T20:45:24.038Z,2.50
2023-03-12T20:47:55.815Z,1.90
2023-03-12T20:50:28.246Z,1.67
2023-03-12T20:52:58.423Z,1.83
2023-03-12T20:55:28.833Z,1.50
2023-03-12T20:57:59.062Z,2.67
2023-03-12T21:00:29.059Z,1.80
2023-03-12T21:03:00.060Z,1.73
2023-03-12T21:05:31.719Z,1.63
2023-03-12T21:08:01.313Z,2.20
2023-03-12T21:10:31.829Z,1.70
2023-03-12T21:13:01.702Z,1.83
2023-03-12T21:15:32.022Z,2.80
2023-03-12T21:18:01.807Z,2.97
2023-03-12T21:20:34.013Z,1.85
2023-03-12T21:23:05.259Z,2.20
2023-03-12T21:25:36.941Z,2.22
2023-03-12T21:28:09.256Z,2.10
2023-03-12T21:30:39.442Z,2.28
2023-03-12T21:33:09.268Z,2.95
2023-03-12T21:35:44.986Z,3.72
2023-03-12T21:38:15.775Z,2.20
2023-03-12T21:40:46.134Z,2.30
2023-03-12T21:43:16.344Z,2.00
2023-03-12T21:45:47.668Z,2.03
2023-03-12T21:48:18.018Z,4.10
2023-03-12T21:50:49.789Z,2.38
2023-03-12T21:53:23.735Z,2.53
2023-03-12T21:55:58.432Z,2.22
2023-03-12T21:58:29.566Z,2.35
2023-03-12T22:01:08.129Z,2.60
2023-03-12T22:03:39.416Z,1.88
2023-03-12T22:06:18.744Z,2.03
2023-03-12T22:08:50.757Z,1.70
2023-03-12T22:11:21.722Z,1.77
2023-03-12T22:13:52.703Z,1.70
2023-03-12T22:16:23.172Z,1.38
2023-03-12T22:18:53.499Z,1.52
2023-03-12T22:21:27.378Z,1.75
2023-03-12T22:23:57.792Z,1.52
2023-03-12T22:26:28.637Z,1.20
2023-03-12T22:29:01.667Z,1.33
2023-03-12T22:31:32.723Z,0.98
2023-03-12T22:34:03.320Z,1.08
2023-03-12T22:36:35.028Z,2.05
2023-03-12T22:39:06.063Z,0.80
2023-03-12T22:41:36.377Z,0.85
2023-03-12T22:44:09.745Z,0.90
2023-03-12T22:46:39.697Z,0.60
2023-03-12T22:49:10.016Z,0.70
2023-03-12T22:51:42.282Z,0.68
2023-03-12T22:54:12.314Z,0.75
2023-03-12T22:56:42.760Z,1.05
2023-03-12T22:59:13.113Z,1.02
2023-03-12T23:01:43.513Z,0.90
2023-03-12T23:04:13.951Z,1.38
2023-03-12T23:06:45.795Z,1.42
2023-03-12T23:09:15.801Z,0.57
2023-03-12T23:11:46.068Z,1.67
2023-03-12T23:14:16.141Z,1.20
2023-03-12T23:16:46.389Z,1.42
2023-03-12T23:19:16.480Z,1.27
2023-03-12T23:21:48.740Z,1.00
2023-03-12T23:24:18.859Z,1.05
2023-03-12T23:26:48.928Z,1.23
2023-03-12T23:29:19.397Z,1.33
2023-03-12T23:31:49.832Z,2.00
2023-03-12T23:34:20.408Z,1.42
2023-03-12T23:36:52.995Z,1.27
2023-03-12T23:39:23.259Z,1.15
2023-03-12T23:41:53.066Z,1.52
2023-03-12T23:44:23.072Z,1.10
2023-03-12T23:46:52.644Z,1.15
2023-03-12T23:49:22.219Z,1.38
2023-03-12T23:51:53.486Z,1.20
2023-03-12T23:54:23.887Z,1.05
2023-03-12T23:56:53.950Z,1.20
2023-03-12T23:59:24.075Z,1.60
